Time;durP1;ratioP1;P1;durP2;ratioP2;P2;SDS_P1;SDS_P2;PMS_P1;PMS_P2;Temp;Humidity;BMP_temperature;BMP_pressure;BME280_temperature;BME280_humidity;BME280_pressure;Samples;Min_cycle;Max_cycle;Signal;HPM_P1;HPM_P2
2023/10/17 00:00:28;;;;;;;19.17;9.10;;;;;;;5.26;93.83;101026.34;10211319;28;20138;-77
2023/10/17 00:05:36;;;;;;;15.07;9.10;;;;;;;5.30;93.54;101011.09;10213977;28;20046;-77
2023/10/17 00:10:41;;;;;;;10.18;8.50;;;;;;;5.26;93.97;101010.38;10215079;28;20055;-78
2023/10/17 00:15:45;;;;;;;11.55;9.10;;;;;;;5.26;93.48;101000.56;10206096;28;20054;-78
2023/10/17 00:20:51;;;;;;;24.25;9.40;;;;;;;5.24;93.56;100999.81;10151724;28;20058;-78
2023/10/17 00:25:54;;;;;;;15.10;10.10;;;;;;;5.12;93.29;100994.22;10148832;28;20059;-78
2023/10/17 00:30:57;;;;;;;13.27;9.82;;;;;;;5.13;92.80;101001.25;10187670;28;20092;-79
2023/10/17 00:36:03;;;;;;;13.38;9.65;;;;;;;5.20;92.26;100990.22;10195648;28;20064;-79
2023/10/17 00:41:08;;;;;;;13.73;9.60;;;;;;;5.22;91.98;100990.16;10211854;28;20044;-79
2023/10/17 00:46:12;;;;;;;11.25;8.23;;;;;;;5.15;91.66;100994.06;10207569;28;20724;-79
2023/10/17 00:51:34;;;;;;;11.88;8.82;;;;;;;5.17;90.96;101000.19;10189926;28;20047;-79
2023/10/17 00:56:37;;;;;;;11.48;8.13;;;;;;;5.22;91.56;100996.34;10228567;28;20123;-78
2023/10/17 01:01:41;;;;;;;13.90;8.77;;;;;;;5.20;91.11;100986.72;10230325;28;20272;-77
2023/10/17 01:06:53;;;;;;;12.20;7.88;;;;;;;5.11;90.98;100992.50;10217102;28;20046;-77
2023/10/17 01:11:57;;;;;;;10.25;7.85;;;;;;;5.09;90.77;100994.34;10207917;28;20134;-77
2023/10/17 01:17:05;;;;;;;12.43;7.50;;;;;;;5.00;90.11;100991.22;10209583;28;20438;-76
2023/10/17 01:22:09;;;;;;;9.50;7.30;;;;;;;4.90;89.94;100986.34;10206433;28;20062;-77
2023/10/17 01:27:13;;;;;;;10.13;7.82;;;;;;;4.92;89.66;100985.34;10209801;28;20089;-77
2023/10/17 01:32:18;;;;;;;9.15;7.45;;;;;;;4.94;89.73;100994.13;10203239;28;20047;-77
2023/10/17 01:37:21;;;;;;;8.60;7.22;;;;;;;4.81;89.28;100988.53;10203331;28;20047;-76
2023/10/17 01:42:25;;;;;;;11.50;7.22;;;;;;;4.80;89.55;100993.91;10205908;28;20051;-77
2023/10/17 01:47:28;;;;;;;11.35;7.65;;;;;;;4.80;89.19;100984.16;10198500;28;20189;-77
2023/10/17 01:52:33;;;;;;;141.80;11.45;;;;;;;4.79;89.02;100985.06;10205040;28;20142;-77
2023/10/17 01:57:40;;;;;;;11.35;8.60;;;;;;;4.74;89.33;100991.53;10198129;28;20099;-77
2023/10/17 02:02:43;;;;;;;11.27;8.65;;;;;;;4.79;89.79;100982.41;10201856;28;20043;-78
2023/10/17 02:07:46;;;;;;;10.25;8.18;;;;;;;4.81;89.83;100985.84;10236577;28;20471;-78
2023/10/17 02:12:50;;;;;;;10.18;7.88;;;;;;;4.84;89.97;100983.03;10212014;28;21271;-77
2023/10/17 02:17:57;;;;;;;73.55;8.50;;;;;;;4.95;90.16;100984.34;10213702;28;20054;-77
2023/10/17 02:23:01;;;;;;;17.27;5.57;;;;;;;4.83;90.35;100985.81;10216626;28;20114;-79
2023/10/17 02:28:06;;;;;;;80.20;8.20;;;;;;;4.72;90.44;100978.31;10216000;28;20051;-78
2023/10/17 02:33:17;;;;;;;95.85;8.85;;;;;;;4.63;91.30;100978.72;10214637;28;20047;-79
2023/10/17 02:38:21;;;;;;;76.72;7.75;;;;;;;4.59;91.65;100987.81;10211991;28;20523;-79
2023/10/17 02:43:25;;;;;;;79.03;7.93;;;;;;;4.66;91.33;100988.38;10205811;28;20056;-78
2023/10/17 02:48:28;;;;;;;65.00;8.25;;;;;;;4.53;91.76;100980.97;10204388;28;20051;-79
2023/10/17 02:53:34;;;;;;;65.13;8.38;;;;;;;4.59;92.34;100983.34;10200879;28;20051;-78
2023/10/17 02:58:38;;;;;;;40.85;6.35;;;;;;;4.48;92.02;100992.75;10208146;28;20047;-78
2023/10/17 03:03:41;;;;;;;22.90;6.07;;;;;;;4.45;92.74;100985.78;10209734;28;20058;-79
2023/10/17 03:08:49;;;;;;;37.13;6.57;;;;;;;4.44;92.26;100980.53;10204360;28;20046;-79
2023/10/17 03:13:55;;;;;;;34.42;6.90;;;;;;;4.38;92.05;100977.22;10204267;28;20332;-79
2023/10/17 03:18:58;;;;;;;64.55;8.00;;;;;;;4.40;92.16;100962.03;10203908;28;21182;-79
2023/10/17 03:24:04;;;;;;;42.08;7.15;;;;;;;4.43;92.34;100962.84;10213150;28;20051;-79
2023/10/17 03:29:14;;;;;;;125.50;9.10;;;;;;;4.43;92.41;100970.81;10211584;28;20503;-79
2023/10/17 03:34:28;;;;;;;91.90;9.35;;;;;;;4.45;92.25;100966.31;10210661;28;20396;-78
2023/10/17 03:39:45;;;;;;;45.45;7.10;;;;;;;4.48;92.81;100969.69;10219910;28;20051;-78
2023/10/17 03:44:54;;;;;;;50.50;7.97;;;;;;;4.57;92.90;100971.91;10212106;28;20058;-78
2023/10/17 03:49:57;;;;;;;19.70;7.15;;;;;;;4.53;92.89;100986.28;10211954;28;20617;-79
2023/10/17 03:54:59;;;;;;;25.17;6.75;;;;;;;4.59;93.02;100985.16;10203445;28;20689;-79
2023/10/17 04:00:25;;;;;;;45.28;8.07;;;;;;;4.67;93.03;100990.13;10205656;28;20056;-79
2023/10/17 04:05:28;;;;;;;59.05;8.75;;;;;;;4.67;93.11;100979.47;10208234;28;20055;-79
2023/10/17 04:10:39;;;;;;;41.72;8.10;;;;;;;4.62;92.86;100985.84;10234594;28;20043;-79
2023/10/17 04:15:44;;;;;;;52.60;9.20;;;;;;;4.65;93.05;100986.66;10198874;28;20517;-79
2023/10/17 04:20:47;;;;;;;65.00;9.73;;;;;;;4.58;92.93;100988.72;10199870;28;20071;-78
2023/10/17 04:25:54;;;;;;;69.78;9.68;;;;;;;4.54;93.11;100988.00;10200300;28;21176;-79
2023/10/17 04:30:59;;;;;;;40.45;8.52;;;;;;;4.55;93.20;100978.22;10199251;28;20055;-79
2023/10/17 04:36:06;;;;;;;108.82;15.02;;;;;;;4.64;93.22;100975.16;10205570;28;20051;-79
2023/10/17 04:41:17;;;;;;;54.92;10.35;;;;;;;4.65;93.57;100978.69;10229390;28;20141;-79
2023/10/17 04:46:28;;;;;;;21.92;9.13;;;;;;;4.74;93.60;100980.88;10222627;28;20042;-78
2023/10/17 04:51:36;;;;;;;36.50;9.20;;;;;;;4.84;93.95;100971.53;10217352;28;20051;-77
2023/10/17 04:56:52;;;;;;;58.67;9.75;;;;;;;4.95;93.59;100971.03;10221189;28;20127;-79
2023/10/17 05:02:14;;;;;;;92.47;11.07;;;;;;;4.96;93.36;100976.25;10216779;28;20422;-79
2023/10/17 05:07:21;;;;;;;100.78;10.48;;;;;;;4.86;93.17;100980.31;10216341;28;20054;-78
2023/10/17 06:17:21;;;;;;;103.30;12.45;;;;;;;5.31;95.43;101026.16;10215300;28;20054;-79
2023/10/17 06:33:19;;;;;;;38.90;12.70;;;;;;;7.09;97.22;101031.03;10211745;28;20772;-78
2023/10/17 06:38:29;;;;;;;23.58;10.15;;;;;;;7.69;93.63;101028.47;10208935;28;20051;-78
2023/10/17 06:43:35;;;;;;;9.75;6.07;;;;;;;7.86;87.99;101019.44;10207294;28;20054;-78
2023/10/17 06:48:48;;;;;;;44.50;9.20;;;;;;;7.71;85.52;101028.38;10213432;28;20070;-78
2023/10/17 06:53:55;;;;;;;52.95;9.13;;;;;;;6.93;86.35;101025.69;10203139;28;20051;-77
2023/10/17 06:59:04;;;;;;;116.85;11.82;;;;;;;6.49;87.47;101028.94;10196441;28;20122;-77
2023/10/17 07:04:11;;;;;;;136.05;13.18;;;;;;;6.22;88.85;101025.94;10206441;28;20078;-77
2023/10/17 07:09:18;;;;;;;35.20;10.68;;;;;;;6.17;90.14;101023.53;10202135;28;20182;-77
2023/10/17 07:14:25;;;;;;;69.35;11.63;;;;;;;6.20;90.34;101025.19;10214751;28;20113;-78
2023/10/17 07:24:52;;;;;;;37.90;12.07;;;;;;;6.34;90.41;101033.31;10201626;28;20178;-77
2023/10/17 07:30:10;;;;;;;43.15;12.05;;;;;;;6.43;90.24;101031.94;10204135;28;20581;-78
2023/10/17 07:35:16;;;;;;;38.35;11.55;;;;;;;6.46;90.04;101030.94;10200997;28;20055;-78
2023/10/17 07:40:23;;;;;;;22.98;11.18;;;;;;;6.62;89.97;101029.16;10195478;28;20055;-77
2023/10/17 07:45:26;;;;;;;25.02;11.18;;;;;;;6.79;89.43;101045.09;10201897;28;20526;-77
2023/10/17 07:50:29;;;;;;;26.90;11.23;;;;;;;6.87;88.96;101035.81;10207689;28;20055;-77
2023/10/17 07:55:36;;;;;;;20.85;11.20;;;;;;;7.00;88.00;101035.09;10201510;28;20055;-78
2023/10/17 08:00:39;;;;;;;27.33;10.55;;;;;;;7.05;87.59;101033.03;10209294;28;20050;-77
2023/10/17 08:05:54;;;;;;;21.52;10.07;;;;;;;7.33;87.08;101033.28;10201626;28;20070;-77
2023/10/17 08:10:59;;;;;;;21.35;11.43;;;;;;;7.28;86.04;101034.38;10204800;28;20127;-77
2023/10/17 08:16:06;;;;;;;25.45;12.75;;;;;;;7.23;85.53;101044.47;10210498;28;20542;-78
2023/10/17 08:26:29;;;;;;;19.05;11.10;;;;;;;7.69;84.84;101036.47;10218862;28;20054;-78
2023/10/17 08:31:39;;;;;;;20.17;10.98;;;;;;;7.82;83.62;101025.06;10212866;28;20148;-78
2023/10/17 08:36:48;;;;;;;21.13;11.95;;;;;;;7.93;83.60;101017.28;10207506;28;20056;-78
2023/10/17 08:41:57;;;;;;;24.25;11.55;;;;;;;8.35;83.06;101020.97;10211591;28;20421;-78
2023/10/17 08:47:01;;;;;;;22.67;12.13;;;;;;;8.43;82.60;101020.50;10202413;28;20111;-78
2023/10/17 08:52:07;;;;;;;17.48;11.07;;;;;;;8.59;82.21;101024.81;10204264;28;20542;-78
2023/10/17 08:57:13;;;;;;;22.08;10.98;;;;;;;8.72;81.75;101013.31;10219588;28;20051;-78
2023/10/17 09:02:28;;;;;;;20.25;10.80;;;;;;;8.94;81.43;101020.84;10223193;28;20474;-78
2023/10/17 09:07:42;;;;;;;18.48;10.93;;;;;;;9.11;79.59;101012.59;10226230;28;20066;-78
2023/10/17 09:13:14;;;;;;;17.27;10.75;;;;;;;9.31;79.99;101003.25;10202490;28;20056;-79
2023/10/17 09:18:27;;;;;;;20.90;11.00;;;;;;;9.43;78.38;101005.09;10205866;28;20439;-78
2023/10/17 09:23:31;;;;;;;21.23;11.35;;;;;;;9.69;77.79;100999.84;10206304;28;20186;-78
2023/10/17 09:28:36;;;;;;;17.73;9.90;;;;;;;9.67;76.74;100993.72;10198313;28;20084;-78
2023/10/17 09:33:43;;;;;;;19.38;10.45;;;;;;;9.79;76.54;100997.38;10211029;28;20059;-78
2023/10/17 09:38:48;;;;;;;20.15;10.27;;;;;;;9.94;77.21;100996.38;10212079;28;20134;-78
2023/10/17 09:43:53;;;;;;;18.35;9.43;;;;;;;10.46;75.96;100997.25;10206268;28;20048;-78
2023/10/17 09:49:02;;;;;;;17.80;8.63;;;;;;;10.28;74.24;100994.88;10207814;28;21036;-77
2023/10/17 09:54:12;;;;;;;18.15;8.35;;;;;;;10.62;74.93;100997.88;10213348;28;20149;-78
2023/10/17 09:59:25;;;;;;;12.07;7.32;;;;;;;12.03;70.81;100987.34;10216916;28;20050;-79
2023/10/17 10:04:29;;;;;;;8.15;5.35;;;;;;;12.38;63.91;100973.00;10223518;28;20183;-77
2023/10/17 10:15:06;;;;;;;7.65;5.30;;;;;;;12.38;65.04;100976.53;10224206;28;20047;-79
2023/10/17 10:20:10;;;;;;;7.25;5.93;;;;;;;13.08;60.44;100973.66;10212900;28;20047;-80
2023/10/17 10:25:26;;;;;;;8.25;5.50;;;;;;;13.02;59.36;100978.56;10211997;28;20061;-78
2023/10/17 10:30:43;;;;;;;7.43;5.13;;;;;;;13.07;58.72;100980.03;10231727;28;20053;-77
2023/10/17 10:35:52;;;;;;;5.78;5.18;;;;;;;12.88;57.13;100980.69;10220849;28;20055;-79
2023/10/17 10:40:55;;;;;;;8.27;5.50;;;;;;;12.31;61.82;100974.47;10214284;28;20058;-78
2023/10/17 10:46:03;;;;;;;4.68;4.28;;;;;;;14.26;54.63;100956.44;10220675;28;20075;-79
2023/10/17 10:51:15;;;;;;;8.70;5.78;;;;;;;12.96;55.92;100953.97;10208432;28;20131;-77
2023/10/17 10:56:21;;;;;;;6.25;5.65;;;;;;;12.19;60.78;100953.84;10229974;28;20063;-79
2023/10/17 11:01:27;;;;;;;8.65;5.30;;;;;;;12.11;61.22;100958.00;10225723;28;20075;-78
2023/10/17 11:06:35;;;;;;;9.63;5.30;;;;;;;11.52;63.47;100954.53;10243811;28;20071;-77
2023/10/17 11:11:49;;;;;;;7.80;5.38;;;;;;;11.09;64.44;100950.53;10205664;28;21201;-78
2023/10/17 11:17:02;;;;;;;8.15;6.10;;;;;;;11.57;64.86;100958.59;10215057;28;20055;-77
2023/10/17 11:22:05;;;;;;;8.57;5.78;;;;;;;11.53;62.88;100961.66;10211361;28;20055;-78
2023/10/17 11:27:09;;;;;;;11.48;6.65;;;;;;;11.08;65.73;100956.00;10210900;28;20112;-80
2023/10/17 11:32:21;;;;;;;9.77;6.78;;;;;;;11.09;65.41;100952.38;10211573;28;20143;-77
2023/10/17 11:37:27;;;;;;;10.60;6.47;;;;;;;11.04;65.14;100958.09;10213718;28;20039;-79
2023/10/17 11:42:33;;;;;;;9.68;6.68;;;;;;;10.90;66.14;100955.56;10219988;28;20173;-78
2023/10/17 11:47:40;;;;;;;7.22;6.25;;;;;;;11.12;64.73;100949.47;10198992;28;20051;-79
2023/10/17 11:52:44;;;;;;;8.15;6.10;;;;;;;11.26;64.25;100944.78;10211580;28;20047;-79
2023/10/17 11:57:51;;;;;;;7.65;5.80;;;;;;;11.14;63.11;100943.03;10237582;28;20049;-78
2023/10/17 12:02:56;;;;;;;6.18;4.60;;;;;;;11.32;62.49;100931.84;10211044;28;20130;-77
2023/10/17 12:08:00;;;;;;;10.50;5.57;;;;;;;11.49;62.50;100912.59;10217617;28;20055;-78
2023/10/17 12:13:07;;;;;;;9.05;5.32;;;;;;;11.66;62.97;100893.31;10209476;28;20589;-80
2023/10/17 12:18:21;;;;;;;5.70;4.90;;;;;;;12.76;58.54;100885.50;10209491;28;20529;-79
2023/10/17 12:23:29;;;;;;;4.63;3.92;;;;;;;13.63;53.73;100871.88;10228548;28;20055;-79
2023/10/17 12:28:33;;;;;;;4.80;4.00;;;;;;;14.90;54.36;100878.69;10221909;28;20069;-79
2023/10/17 12:33:38;;;;;;;4.85;3.90;;;;;;;14.05;52.62;100870.00;10219278;28;20053;-80
2023/10/17 12:38:44;;;;;;;4.82;3.88;;;;;;;14.89;52.49;100858.03;10217926;28;20039;-78
2023/10/17 12:43:53;;;;;;;6.47;4.20;;;;;;;14.83;51.10;100846.75;10201204;28;20515;-79
2023/10/17 12:48:59;;;;;;;5.38;3.42;;;;;;;15.12;49.01;100845.09;10225724;28;20043;-80
2023/10/17 12:54:04;;;;;;;4.05;3.65;;;;;;;15.77;49.58;100832.63;10213401;28;20060;-79
2023/10/17 12:59:12;;;;;;;4.32;2.65;;;;;;;18.44;44.88;100826.38;10226825;28;20047;-77
2023/10/17 13:04:19;;;;;;;4.05;2.67;;;;;;;20.35;39.55;100834.19;10206493;28;20078;-78
2023/10/17 13:09:23;;;;;;;3.97;2.92;;;;;;;16.58;44.16;100838.22;10241088;28;20082;-79
2023/10/17 13:14:27;;;;;;;3.25;2.92;;;;;;;18.82;41.28;100813.25;10241049;28;20144;-80
2023/10/17 13:19:39;;;;;;;4.85;2.72;;;;;;;20.66;38.30;100806.03;10222932;28;20159;-78
2023/10/17 13:24:50;;;;;;;3.83;2.80;;;;;;;20.55;37.86;100802.69;10236366;28;20053;-79
2023/10/17 13:29:56;;;;;;;4.30;3.17;;;;;;;21.13;39.22;100797.69;10253866;28;20672;-78
2023/10/17 13:35:01;;;;;;;3.20;2.90;;;;;;;21.92;37.98;100774.53;10233126;28;20078;-79
2023/10/17 13:40:14;;;;;;;4.63;3.00;;;;;;;21.08;38.94;100771.94;10240553;28;20060;-80
2023/10/17 13:45:28;;;;;;;2.85;2.58;;;;;;;19.46;39.64;100773.41;10249293;28;20574;-78
2023/10/17 13:50:32;;;;;;;3.67;3.25;;;;;;;18.68;42.48;100771.19;10267959;28;20051;-78
2023/10/17 13:55:36;;;;;;;6.18;2.63;;;;;;;18.18;42.31;100762.03;10222265;28;20070;-77
2023/10/17 14:00:43;;;;;;;3.30;3.00;;;;;;;17.09;45.87;100757.16;10204507;28;20055;-77
2023/10/17 14:05:48;;;;;;;3.42;3.00;;;;;;;17.46;46.17;100754.22;10197376;28;20550;-77
2023/10/17 14:10:51;;;;;;;3.70;2.80;;;;;;;18.08;44.28;100747.75;10202294;28;20055;-77
2023/10/17 14:15:56;;;;;;;3.30;2.78;;;;;;;17.15;45.38;100747.56;10203668;28;20806;-77
2023/10/17 14:21:16;;;;;;;4.40;2.80;;;;;;;15.25;48.55;100750.94;10200429;28;21256;-77
2023/10/17 14:26:20;;;;;;;3.40;3.08;;;;;;;13.59;53.21;100743.59;10199782;28;20768;-77
2023/10/17 14:31:24;;;;;;;7.05;3.63;;;;;;;14.87;52.35;100728.34;10203642;28;20058;-77
2023/10/17 14:36:29;;;;;;;5.15;3.38;;;;;;;16.09;50.07;100731.91;10214935;28;20130;-77
2023/10/17 14:41:35;;;;;;;3.30;2.92;;;;;;;15.00;50.89;100744.25;10222168;28;20043;-77
2023/10/17 14:46:38;;;;;;;3.35;2.60;;;;;;;14.88;51.97;100740.03;10216858;28;21824;-78
2023/10/17 14:51:42;;;;;;;5.03;3.03;;;;;;;15.28;50.70;100742.53;10209775;28;20073;-77
2023/10/17 14:56:45;;;;;;;4.93;3.28;;;;;;;14.41;52.48;100743.44;10214625;28;20077;-77
2023/10/17 15:01:48;;;;;;;4.65;3.25;;;;;;;13.68;54.20;100746.31;10210228;28;21209;-77
2023/10/17 15:06:53;;;;;;;3.65;3.35;;;;;;;13.35;56.41;100733.06;10204946;28;20047;-77
2023/10/17 15:11:57;;;;;;;7.25;3.85;;;;;;;12.71;57.66;100724.16;10200486;28;20076;-77
2023/10/17 15:16:59;;;;;;;4.90;3.58;;;;;;;12.11;60.35;100722.88;10197353;28;20071;-77
2023/10/17 15:22:04;;;;;;;4.65;3.55;;;;;;;12.55;59.96;100713.81;10200128;28;20058;-77
2023/10/17 15:27:07;;;;;;;8.88;4.57;;;;;;;12.55;58.52;100707.56;10202311;28;20062;-77
2023/10/17 15:32:11;;;;;;;5.43;3.92;;;;;;;12.01;60.28;100711.97;10189452;28;20056;-77
2023/10/17 15:37:17;;;;;;;6.20;4.63;;;;;;;11.37;62.80;100715.34;10194229;28;20047;-78
2023/10/17 15:42:20;;;;;;;6.25;4.78;;;;;;;11.02;64.61;100713.56;10211029;28;20051;-78
2023/10/17 15:47:23;;;;;;;8.18;5.00;;;;;;;10.86;65.89;100717.53;10207902;28;20058;-78
2023/10/17 15:52:27;;;;;;;6.35;5.20;;;;;;;10.80;66.14;100718.88;10218959;28;20050;-78
2023/10/17 15:57:30;;;;;;;6.47;4.55;;;;;;;10.85;66.09;100716.69;10211746;28;20048;-78
2023/10/17 16:02:32;;;;;;;6.32;5.30;;;;;;;10.79;65.84;100719.88;10217447;28;20054;-78
2023/10/17 16:07:37;;;;;;;8.00;5.32;;;;;;;10.46;67.21;100725.97;10214297;28;21549;-78
2023/10/17 16:12:41;;;;;;;8.68;5.70;;;;;;;10.21;68.07;100716.22;10213068;28;20185;-77
2023/10/17 16:17:44;;;;;;;10.30;5.72;;;;;;;9.76;69.76;100708.69;10201682;28;20254;-76
2023/10/17 16:22:48;;;;;;;9.68;6.22;;;;;;;9.50;70.77;100718.63;10208465;28;20051;-75
2023/10/17 16:27:52;;;;;;;7.25;6.25;;;;;;;9.30;71.71;100717.34;10200684;28;20101;-76
2023/10/17 16:32:56;;;;;;;11.25;7.18;;;;;;;9.13;72.45;100717.66;10201158;28;20050;-75
2023/10/17 16:38:00;;;;;;;10.38;7.47;;;;;;;9.01;72.77;100730.09;10204660;28;20101;-75
2023/10/17 16:43:04;;;;;;;11.82;7.68;;;;;;;8.84;73.62;100728.59;10202510;28;20078;-75
2023/10/17 16:48:07;;;;;;;11.70;8.02;;;;;;;8.73;74.15;100741.84;10206878;28;20138;-76
2023/10/17 16:53:11;;;;;;;12.57;7.55;;;;;;;8.64;74.46;100735.31;10211529;28;20201;-76
2023/10/17 16:58:14;;;;;;;10.02;7.18;;;;;;;8.50;75.18;100744.25;10202197;28;20047;-76
2023/10/17 17:03:17;;;;;;;10.10;6.82;;;;;;;8.50;75.50;100757.66;10202152;28;20061;-76
2023/10/17 17:08:21;;;;;;;14.55;8.82;;;;;;;8.44;76.22;100746.44;10193001;28;20043;-76
2023/10/17 17:13:24;;;;;;;13.27;8.52;;;;;;;8.28;76.35;100758.19;10207833;28;20419;-76
2023/10/17 17:18:27;;;;;;;11.90;9.60;;;;;;;8.19;76.86;100748.06;10187992;28;20060;-77
2023/10/17 17:23:34;;;;;;;12.32;9.32;;;;;;;8.11;77.17;100748.53;10188083;28;20070;-75
2023/10/17 17:28:38;;;;;;;14.05;10.32;;;;;;;8.08;77.40;100747.91;10210193;28;20561;-77
2023/10/17 17:33:41;;;;;;;11.65;8.90;;;;;;;7.98;77.63;100753.00;10188144;28;20082;-75
2023/10/17 17:38:45;;;;;;;12.77;8.93;;;;;;;7.78;78.36;100751.56;10206940;28;20055;-75
2023/10/17 17:43:48;;;;;;;12.50;9.48;;;;;;;7.73;78.61;100749.22;10217430;28;20126;-75
2023/10/17 17:48:51;;;;;;;17.10;11.88;;;;;;;7.65;78.81;100748.84;10194600;28;20055;-75
2023/10/17 17:53:56;;;;;;;18.52;10.75;;;;;;;7.59;79.24;100743.00;10217039;28;20599;-76
2023/10/17 17:59:00;;;;;;;18.05;12.63;;;;;;;7.56;79.39;100752.06;10213139;28;20052;-77
2023/10/17 18:04:11;;;;;;;14.32;10.77;;;;;;;7.55;79.33;100736.13;10215001;28;21186;-78
2023/10/17 18:09:34;;;;;;;14.88;10.45;;;;;;;7.45;79.28;100723.34;10215887;28;20043;-75
2023/10/17 18:14:41;;;;;;;12.90;9.77;;;;;;;7.33;79.81;100720.59;10216622;28;20051;-76
2023/10/17 18:19:48;;;;;;;17.50;11.10;;;;;;;7.39;80.48;100725.53;10200421;28;20040;-75
2023/10/17 18:24:52;;;;;;;17.20;11.30;;;;;;;7.36;80.54;100717.72;10202497;28;20043;-76
2023/10/17 18:29:57;;;;;;;14.40;10.48;;;;;;;7.38;80.32;100716.69;10195593;28;20278;-77
2023/10/17 18:35:00;;;;;;;16.58;11.40;;;;;;;7.31;80.24;100701.09;10207540;28;20056;-75
2023/10/17 18:40:07;;;;;;;17.92;12.40;;;;;;;7.23;80.38;100707.78;10216135;28;20142;-78
2023/10/17 18:45:14;;;;;;;14.93;11.68;;;;;;;7.20;80.20;100696.44;10209685;28;20561;-76
2023/10/17 18:50:22;;;;;;;20.30;11.38;;;;;;;7.14;80.08;100695.00;10242912;28;20066;-77
2023/10/17 18:55:26;;;;;;;14.02;10.70;;;;;;;7.14;80.28;100700.34;10230174;28;20103;-78
2023/10/17 19:00:31;;;;;;;16.08;10.13;;;;;;;7.09;79.93;100691.75;10237557;28;20050;-77
2023/10/17 19:05:36;;;;;;;16.15;12.18;;;;;;;7.03;79.73;100687.63;10245262;28;20550;-77
2023/10/17 19:10:43;;;;;;;16.27;12.20;;;;;;;6.96;79.71;100683.63;10217748;28;20140;-78
2023/10/17 19:15:48;;;;;;;16.00;11.88;;;;;;;6.90;79.65;100672.47;10204645;28;20078;-78
2023/10/17 19:20:57;;;;;;;25.73;14.07;;;;;;;6.89;80.08;100681.44;10223698;28;20729;-77
2023/10/17 19:26:11;;;;;;;32.33;17.60;;;;;;;6.75;79.97;100682.25;10213057;28;20051;-77
2023/10/17 19:31:23;;;;;;;16.55;10.32;;;;;;;6.44;81.04;100688.53;10191803;28;20070;-77
2023/10/17 19:36:33;;;;;;;20.27;13.07;;;;;;;6.39;82.14;100667.47;10214930;28;20055;-79
2023/10/17 19:41:38;;;;;;;20.88;11.88;;;;;;;6.44;81.67;100675.19;10193958;28;20627;-77
2023/10/17 19:46:41;;;;;;;17.67;11.20;;;;;;;6.45;81.44;100669.78;10214790;28;20051;-77
2023/10/17 19:51:45;;;;;;;18.52;11.13;;;;;;;6.35;80.83;100669.44;10203666;28;20405;-76
2023/10/17 19:56:50;;;;;;;19.55;12.90;;;;;;;6.29;80.89;100660.97;10211429;28;21198;-78
2023/10/17 20:01:54;;;;;;;27.58;16.52;;;;;;;6.35;81.08;100665.91;10214750;28;20058;-76
2023/10/17 20:06:58;;;;;;;20.38;13.25;;;;;;;6.06;81.71;100664.94;10212773;28;20048;-78
2023/10/17 20:12:03;;;;;;;24.15;13.88;;;;;;;5.45;85.16;100670.13;10242667;28;20176;-77
2023/10/17 20:17:07;;;;;;;22.17;13.73;;;;;;;5.32;86.46;100674.44;10222984;28;20095;-76
2023/10/17 20:22:14;;;;;;;21.38;13.30;;;;;;;5.57;85.79;100665.94;10192357;28;20134;-78
2023/10/17 20:27:27;;;;;;;23.95;14.30;;;;;;;5.75;84.69;100671.19;10198998;28;20047;-78
2023/10/17 20:32:34;;;;;;;27.92;17.58;;;;;;;5.69;84.47;100673.22;10210736;28;20560;-77
2023/10/17 20:37:38;;;;;;;25.15;16.25;;;;;;;5.48;85.94;100671.75;10201023;28;20047;-77
2023/10/17 20:42:43;;;;;;;31.70;17.02;;;;;;;5.41;86.91;100668.59;10196290;28;20404;-77
2023/10/17 20:47:46;;;;;;;27.73;17.92;;;;;;;5.64;86.48;100655.78;10220151;28;20086;-77
2023/10/17 20:52:50;;;;;;;28.58;17.25;;;;;;;5.78;86.06;100653.19;10203918;28;20051;-75
2023/10/17 20:57:56;;;;;;;22.70;15.40;;;;;;;5.79;84.56;100646.94;10241930;28;20474;-76
2023/10/17 21:02:59;;;;;;;25.90;16.15;;;;;;;5.73;84.10;100636.59;10216702;28;20145;-75
2023/10/17 21:08:03;;;;;;;33.42;17.55;;;;;;;5.59;83.29;100629.38;10199604;28;20059;-76
2023/10/17 21:13:07;;;;;;;34.42;19.10;;;;;;;5.33;82.74;100622.84;10197283;28;20063;-75
2023/10/17 21:18:11;;;;;;;31.77;18.88;;;;;;;5.14;83.05;100611.50;10207353;28;20512;-76
2023/10/17 21:23:16;;;;;;;27.40;16.13;;;;;;;5.04;83.75;100608.47;10200399;28;20060;-76
2023/10/17 21:28:20;;;;;;;28.15;17.02;;;;;;;5.02;84.11;100602.38;10192798;28;20055;-75
2023/10/17 21:33:23;;;;;;;27.17;15.95;;;;;;;4.98;84.38;100591.00;10202929;28;20056;-76
2023/10/17 21:38:26;;;;;;;27.58;17.20;;;;;;;4.95;84.90;100592.97;10198176;28;20707;-76
2023/10/17 21:43:32;;;;;;;35.78;19.25;;;;;;;5.07;85.46;100589.66;10196176;28;20050;-76
2023/10/17 21:48:36;;;;;;;34.65;19.17;;;;;;;5.24;85.72;100592.28;10194394;28;20423;-76
2023/10/17 21:53:39;;;;;;;35.53;18.90;;;;;;;5.01;87.26;100588.19;10192020;28;20115;-76
2023/10/17 21:58:46;;;;;;;36.67;19.73;;;;;;;5.00;88.76;100580.31;10196785;28;20050;-75
2023/10/17 22:03:50;;;;;;;33.72;19.30;;;;;;;5.21;87.96;100580.91;10195218;28;20058;-76
2023/10/17 22:08:56;;;;;;;37.30;20.05;;;;;;;5.15;87.85;100582.09;10212620;28;20046;-76
2023/10/17 22:14:01;;;;;;;36.17;19.92;;;;;;;5.17;88.60;100569.56;10207033;28;20051;-76
2023/10/17 22:19:04;;;;;;;33.97;19.20;;;;;;;5.36;88.00;100568.56;10205847;28;20059;-76
2023/10/17 22:24:07;;;;;;;36.40;19.20;;;;;;;5.39;87.60;100563.03;10198749;28;20127;-76
2023/10/17 22:29:12;;;;;;;31.77;18.77;;;;;;;5.34;87.26;100551.78;10199414;28;20499;-75
2023/10/17 22:34:15;;;;;;;36.72;20.15;;;;;;;5.33;87.65;100553.59;10196098;28;20047;-76
2023/10/17 22:39:18;;;;;;;31.33;17.83;;;;;;;5.27;87.03;100544.16;10198568;28;20076;-76
2023/10/17 22:44:22;;;;;;;35.70;20.67;;;;;;;5.34;87.40;100546.47;10197422;28;20051;-76
2023/10/17 22:49:27;;;;;;;38.67;21.85;;;;;;;5.41;87.00;100535.38;10196757;28;20056;-76
2023/10/17 22:54:30;;;;;;;35.22;19.85;;;;;;;5.30;86.65;100528.94;10185652;28;20062;-76
2023/10/17 22:59:34;;;;;;;35.78;19.33;;;;;;;5.19;87.21;100525.06;10195025;28;20434;-76
2023/10/17 23:04:37;;;;;;;41.78;21.10;;;;;;;5.21;87.23;100527.63;10192630;28;20161;-76
2023/10/17 23:09:40;;;;;;;32.85;19.17;;;;;;;5.04;86.38;100510.81;10190554;28;20059;-77
2023/10/17 23:14:45;;;;;;;34.42;19.38;;;;;;;4.78;86.25;100503.38;10194507;28;20051;-76
2023/10/17 23:19:47;;;;;;;36.72;19.90;;;;;;;4.74;86.95;100504.50;10198796;28;20063;-77
2023/10/17 23:24:51;;;;;;;45.70;22.05;;;;;;;4.64;87.75;100497.97;10206363;28;20731;-76
2023/10/17 23:29:55;;;;;;;42.33;22.60;;;;;;;4.64;88.23;100496.16;10205128;28;20245;-76
2023/10/17 23:35:00;;;;;;;40.05;21.65;;;;;;;4.62;88.28;100498.03;10204305;28;20062;-76
2023/10/17 23:40:04;;;;;;;42.80;22.48;;;;;;;4.68;88.56;100488.88;10203093;28;20054;-76
2023/10/17 23:45:10;;;;;;;40.92;22.17;;;;;;;4.78;88.43;100498.06;10195803;28;20055;-76
2023/10/17 23:50:15;;;;;;;40.60;21.83;;;;;;;4.73;87.85;100500.97;10195768;28;20078;-76
2023/10/17 23:55:35;;;;;;;39.85;22.52;;;;;;;4.58;87.63;100496.47;10194517;28;20174;-76
